sensor_id;sensor_type;location;lat;lon;timestamp;P1;durP1;ratioP1;P2;durP2;ratioP2
9675;SDS011;4876;42.656;23.292;2023-04-01T00:00:34;17.47;;;9.40;;
9675;SDS011;4876;42.656;23.292;2023-04-01T00:03:01;18.37;;;9.47;;
9675;SDS011;4876;42.656;23.292;2023-04-01T00:05:27;22.77;;;10.20;;
9675;SDS011;4876;42.656;23.292;2023-04-01T00:07:55;15.03;;;9.40;;
9675;SDS011;4876;42.656;23.292;2023-04-01T00:10:22;18.83;;;9.30;;
9675;SDS011;4876;42.656;23.292;2023-04-01T00:12:49;22.50;;;9.87;;
9675;SDS011;4876;42.656;23.292;2023-04-01T00:15:16;14.53;;;9.07;;
9675;SDS011;4876;42.656;23.292;2023-04-01T00:17:43;21.47;;;8.87;;
9675;SDS011;4876;42.656;23.292;2023-04-01T00:20:10;21.07;;;9.20;;
9675;SDS011;4876;42.656;23.292;2023-04-01T00:22:42;20.47;;;9.67;;
9675;SDS011;4876;42.656;23.292;2023-04-01T00:25:14;24.20;;;11.53;;
9675;SDS011;4876;42.656;23.292;2023-04-01T00:27:41;17.33;;;10.83;;
9675;SDS011;4876;42.656;23.292;2023-04-01T00:30:16;30.07;;;14.00;;
9675;SDS011;4876;42.656;23.292;2023-04-01T00:32:43;26.87;;;14.43;;
9675;SDS011;4876;42.656;23.292;2023-04-01T00:35:12;27.80;;;13.50;;
9675;SDS011;4876;42.656;23.292;2023-04-01T00:37:44;21.93;;;13.13;;
9675;SDS011;4876;42.656;23.292;2023-04-01T00:40:22;22.43;;;9.70;;
9675;SDS011;4876;42.656;23.292;2023-04-01T00:43:00;17.67;;;9.20;;
9675;SDS011;4876;42.656;23.292;2023-04-01T00:45:30;15.80;;;8.00;;
9675;SDS011;4876;42.656;23.292;2023-04-01T00:48:00;20.00;;;9.47;;
9675;SDS011;4876;42.656;23.292;2023-04-01T00:50:30;18.53;;;9.40;;
9675;SDS011;4876;42.656;23.292;2023-04-01T00:53:00;18.20;;;10.07;;
9675;SDS011;4876;42.656;23.292;2023-04-01T00:55:30;18.30;;;9.73;;
9675;SDS011;4876;42.656;23.292;2023-04-01T00:58:03;18.07;;;10.00;;
9675;SDS011;4876;42.656;23.292;2023-04-01T01:00:35;23.97;;;10.20;;
9675;SDS011;4876;42.656;23.292;2023-04-01T01:03:02;18.53;;;9.77;;
9675;SDS011;4876;42.656;23.292;2023-04-01T01:05:36;17.67;;;9.13;;
9675;SDS011;4876;42.656;23.292;2023-04-01T01:08:15;23.10;;;9.57;;
9675;SDS011;4876;42.656;23.292;2023-04-01T01:10:54;18.77;;;9.50;;
9675;SDS011;4876;42.656;23.292;2023-04-01T01:13:33;26.47;;;11.73;;
9675;SDS011;4876;42.656;23.292;2023-04-01T01:16:08;23.07;;;11.00;;
9675;SDS011;4876;42.656;23.292;2023-04-01T01:18:40;18.30;;;9.60;;
9675;SDS011;4876;42.656;23.292;2023-04-01T01:21:30;18.20;;;9.83;;
9675;SDS011;4876;42.656;23.292;2023-04-01T01:24:12;18.73;;;8.90;;
9675;SDS011;4876;42.656;23.292;2023-04-01T01:26:55;11.37;;;6.97;;
9675;SDS011;4876;42.656;23.292;2023-04-01T01:29:44;13.40;;;8.00;;
9675;SDS011;4876;42.656;23.292;2023-04-01T01:35:27;10.03;;;5.77;;
9675;SDS011;4876;42.656;23.292;2023-04-01T01:38:00;15.93;;;6.37;;
9675;SDS011;4876;42.656;23.292;2023-04-01T01:40:29;10.73;;;5.23;;
9675;SDS011;4876;42.656;23.292;2023-04-01T01:43:00;8.20;;;4.80;;
9675;SDS011;4876;42.656;23.292;2023-04-01T01:45:38;8.93;;;4.50;;
9675;SDS011;4876;42.656;23.292;2023-04-01T01:48:12;17.23;;;5.00;;
9675;SDS011;4876;42.656;23.292;2023-04-01T01:50:46;9.00;;;3.97;;
9675;SDS011;4876;42.656;23.292;2023-04-01T01:53:14;5.70;;;3.40;;
9675;SDS011;4876;42.656;23.292;2023-04-01T01:55:42;11.80;;;3.83;;
9675;SDS011;4876;42.656;23.292;2023-04-01T01:58:11;13.17;;;5.07;;
9675;SDS011;4876;42.656;23.292;2023-04-01T02:00:43;7.43;;;4.30;;
9675;SDS011;4876;42.656;23.292;2023-04-01T02:03:13;12.80;;;4.83;;
9675;SDS011;4876;42.656;23.292;2023-04-01T02:05:41;11.33;;;4.80;;
9675;SDS011;4876;42.656;23.292;2023-04-01T02:08:10;11.07;;;4.60;;
9675;SDS011;4876;42.656;23.292;2023-04-01T02:10:42;7.27;;;4.30;;
9675;SDS011;4876;42.656;23.292;2023-04-01T02:13:15;12.53;;;4.63;;
9675;SDS011;4876;42.656;23.292;2023-04-01T02:15:48;10.47;;;4.03;;
9675;SDS011;4876;42.656;23.292;2023-04-01T02:18:21;11.23;;;4.30;;
9675;SDS011;4876;42.656;23.292;2023-04-01T02:20:49;6.07;;;4.10;;
9675;SDS011;4876;42.656;23.292;2023-04-01T02:23:19;9.53;;;3.60;;
9675;SDS011;4876;42.656;23.292;2023-04-01T02:25:46;9.97;;;4.70;;
9675;SDS011;4876;42.656;23.292;2023-04-01T02:28:13;8.07;;;4.67;;
9675;SDS011;4876;42.656;23.292;2023-04-01T02:30:45;12.10;;;5.00;;
9675;SDS011;4876;42.656;23.292;2023-04-01T02:33:15;9.47;;;4.50;;
9675;SDS011;4876;42.656;23.292;2023-04-01T02:35:43;12.87;;;4.80;;
9675;SDS011;4876;42.656;23.292;2023-04-01T02:38:10;8.80;;;4.30;;
9675;SDS011;4876;42.656;23.292;2023-04-01T02:40:43;12.80;;;5.03;;
9675;SDS011;4876;42.656;23.292;2023-04-01T02:43:12;9.33;;;4.90;;
9675;SDS011;4876;42.656;23.292;2023-04-01T02:45:39;9.03;;;4.30;;
9675;SDS011;4876;42.656;23.292;2023-04-01T02:48:05;8.20;;;4.10;;
9675;SDS011;4876;42.656;23.292;2023-04-01T02:50:32;10.50;;;4.80;;
9675;SDS011;4876;42.656;23.292;2023-04-01T02:52:59;12.77;;;4.83;;
9675;SDS011;4876;42.656;23.292;2023-04-01T02:55:28;10.93;;;4.47;;
9675;SDS011;4876;42.656;23.292;2023-04-01T02:57:56;9.57;;;4.20;;
9675;SDS011;4876;42.656;23.292;2023-04-01T03:00:23;10.57;;;4.03;;
9675;SDS011;4876;42.656;23.292;2023-04-01T03:02:50;15.73;;;4.93;;
9675;SDS011;4876;42.656;23.292;2023-04-01T03:05:17;9.03;;;4.20;;
9675;SDS011;4876;42.656;23.292;2023-04-01T03:07:44;6.77;;;4.13;;
9675;SDS011;4876;42.656;23.292;2023-04-01T03:10:11;11.00;;;4.20;;
9675;SDS011;4876;42.656;23.292;2023-04-01T03:12:37;13.87;;;4.47;;
9675;SDS011;4876;42.656;23.292;2023-04-01T03:15:06;11.57;;;4.80;;
9675;SDS011;4876;42.656;23.292;2023-04-01T03:17:35;13.87;;;5.73;;
9675;SDS011;4876;42.656;23.292;2023-04-01T03:20:02;12.53;;;6.10;;
9675;SDS011;4876;42.656;23.292;2023-04-01T03:22:30;12.07;;;5.37;;
9675;SDS011;4876;42.656;23.292;2023-04-01T03:24:57;9.60;;;4.50;;
9675;SDS011;4876;42.656;23.292;2023-04-01T03:27:24;13.43;;;5.63;;
9675;SDS011;4876;42.656;23.292;2023-04-01T03:29:50;9.77;;;4.47;;
9675;SDS011;4876;42.656;23.292;2023-04-01T03:32:19;9.30;;;4.30;;
9675;SDS011;4876;42.656;23.292;2023-04-01T03:34:45;18.47;;;5.10;;
9675;SDS011;4876;42.656;23.292;2023-04-01T03:37:12;12.63;;;5.00;;
9675;SDS011;4876;42.656;23.292;2023-04-01T03:39:39;11.80;;;5.60;;
9675;SDS011;4876;42.656;23.292;2023-04-01T03:42:06;9.20;;;5.47;;
9675;SDS011;4876;42.656;23.292;2023-04-01T03:44:33;11.70;;;5.83;;
9675;SDS011;4876;42.656;23.292;2023-04-01T03:47:00;13.50;;;6.10;;
9675;SDS011;4876;42.656;23.292;2023-04-01T03:49:28;9.37;;;5.53;;
9675;SDS011;4876;42.656;23.292;2023-04-01T03:51:57;14.03;;;6.83;;
9675;SDS011;4876;42.656;23.292;2023-04-01T03:54:24;14.43;;;6.57;;
9675;SDS011;4876;42.656;23.292;2023-04-01T03:56:50;10.30;;;6.37;;
9675;SDS011;4876;42.656;23.292;2023-04-01T03:59:17;12.73;;;5.77;;
9675;SDS011;4876;42.656;23.292;2023-04-01T04:01:45;10.83;;;5.07;;
9675;SDS011;4876;42.656;23.292;2023-04-01T04:04:12;13.47;;;4.50;;
9675;SDS011;4876;42.656;23.292;2023-04-01T04:06:41;11.53;;;3.93;;
9675;SDS011;4876;42.656;23.292;2023-04-01T04:09:07;11.33;;;4.50;;
9675;SDS011;4876;42.656;23.292;2023-04-01T04:11:34;8.93;;;3.77;;
9675;SDS011;4876;42.656;23.292;2023-04-01T04:14:01;14.70;;;3.93;;
9675;SDS011;4876;42.656;23.292;2023-04-01T04:16:28;6.67;;;3.60;;
9675;SDS011;4876;42.656;23.292;2023-04-01T04:18:55;10.97;;;3.90;;
9675;SDS011;4876;42.656;23.292;2023-04-01T04:21:22;12.13;;;4.03;;
9675;SDS011;4876;42.656;23.292;2023-04-01T04:23:50;10.03;;;4.43;;
9675;SDS011;4876;42.656;23.292;2023-04-01T04:26:17;11.60;;;4.77;;
9675;SDS011;4876;42.656;23.292;2023-04-01T04:28:44;8.90;;;4.43;;
9675;SDS011;4876;42.656;23.292;2023-04-01T04:31:10;10.73;;;5.20;;
9675;SDS011;4876;42.656;23.292;2023-04-01T04:33:37;9.27;;;5.40;;
9675;SDS011;4876;42.656;23.292;2023-04-01T04:36:04;12.43;;;5.67;;
9675;SDS011;4876;42.656;23.292;2023-04-01T04:38:31;10.33;;;6.63;;
9675;SDS011;4876;42.656;23.292;2023-04-01T04:41:00;14.53;;;6.33;;
9675;SDS011;4876;42.656;23.292;2023-04-01T04:43:29;17.37;;;6.87;;
9675;SDS011;4876;42.656;23.292;2023-04-01T04:45:56;12.93;;;6.47;;
9675;SDS011;4876;42.656;23.292;2023-04-01T04:48:23;12.53;;;6.23;;
9675;SDS011;4876;42.656;23.292;2023-04-01T04:50:50;13.00;;;6.70;;
9675;SDS011;4876;42.656;23.292;2023-04-01T04:53:17;16.47;;;6.40;;
9675;SDS011;4876;42.656;23.292;2023-04-01T04:55:45;20.07;;;6.00;;
9675;SDS011;4876;42.656;23.292;2023-04-01T04:58:14;11.97;;;5.87;;
9675;SDS011;4876;42.656;23.292;2023-04-01T05:00:41;18.70;;;6.30;;
9675;SDS011;4876;42.656;23.292;2023-04-01T05:03:08;12.00;;;6.47;;
9675;SDS011;4876;42.656;23.292;2023-04-01T05:05:36;10.97;;;6.30;;
9675;SDS011;4876;42.656;23.292;2023-04-01T05:08:09;16.33;;;6.47;;
9675;SDS011;4876;42.656;23.292;2023-04-01T05:10:47;14.43;;;6.60;;
9675;SDS011;4876;42.656;23.292;2023-04-01T05:13:16;9.83;;;6.07;;
9675;SDS011;4876;42.656;23.292;2023-04-01T05:15:43;13.57;;;6.73;;
9675;SDS011;4876;42.656;23.292;2023-04-01T05:18:12;16.70;;;6.77;;
9675;SDS011;4876;42.656;23.292;2023-04-01T05:20:45;17.33;;;6.53;;
9675;SDS011;4876;42.656;23.292;2023-04-01T05:23:19;11.20;;;6.03;;
9675;SDS011;4876;42.656;23.292;2023-04-01T05:25:47;11.60;;;6.73;;
9675;SDS011;4876;42.656;23.292;2023-04-01T05:28:18;13.97;;;5.90;;
9675;SDS011;4876;42.656;23.292;2023-04-01T05:30:48;9.30;;;5.97;;
9675;SDS011;4876;42.656;23.292;2023-04-01T05:33:18;12.60;;;5.90;;
9675;SDS011;4876;42.656;23.292;2023-04-01T05:35:45;16.50;;;6.33;;
9675;SDS011;4876;42.656;23.292;2023-04-01T05:38:12;10.93;;;7.13;;
9675;SDS011;4876;42.656;23.292;2023-04-01T05:40:42;17.50;;;7.40;;
9675;SDS011;4876;42.656;23.292;2023-04-01T05:43:09;11.40;;;6.70;;
9675;SDS011;4876;42.656;23.292;2023-04-01T05:45:37;19.13;;;6.70;;
9675;SDS011;4876;42.656;23.292;2023-04-01T05:48:04;12.47;;;6.37;;
9675;SDS011;4876;42.656;23.292;2023-04-01T05:50:31;15.40;;;6.33;;
9675;SDS011;4876;42.656;23.292;2023-04-01T05:52:58;12.03;;;6.23;;
9675;SDS011;4876;42.656;23.292;2023-04-01T05:55:25;9.77;;;6.10;;
9675;SDS011;4876;42.656;23.292;2023-04-01T05:57:52;13.27;;;6.80;;
9675;SDS011;4876;42.656;23.292;2023-04-01T06:00:19;12.90;;;6.27;;
9675;SDS011;4876;42.656;23.292;2023-04-01T06:02:47;16.73;;;6.13;;
9675;SDS011;4876;42.656;23.292;2023-04-01T06:05:15;14.03;;;5.77;;
9675;SDS011;4876;42.656;23.292;2023-04-01T06:07:45;15.23;;;5.23;;
9675;SDS011;4876;42.656;23.292;2023-04-01T06:10:13;16.47;;;4.93;;
9675;SDS011;4876;42.656;23.292;2023-04-01T06:15:33;9.97;;;4.93;;
9675;SDS011;4876;42.656;23.292;2023-04-01T06:18:09;12.73;;;5.20;;
9675;SDS011;4876;42.656;23.292;2023-04-01T06:21:02;8.07;;;4.90;;
9675;SDS011;4876;42.656;23.292;2023-04-01T06:23:44;10.77;;;5.00;;
9675;SDS011;4876;42.656;23.292;2023-04-01T06:26:26;12.90;;;5.40;;
9675;SDS011;4876;42.656;23.292;2023-04-01T06:35:04;13.30;;;5.18;;
9675;SDS011;4876;42.656;23.292;2023-04-01T06:40:56;8.77;;;3.83;;
9675;SDS011;4876;42.656;23.292;2023-04-01T06:43:34;12.20;;;3.73;;
9675;SDS011;4876;42.656;23.292;2023-04-01T06:46:14;10.17;;;4.93;;
9675;SDS011;4876;42.656;23.292;2023-04-01T06:48:50;10.90;;;4.40;;
9675;SDS011;4876;42.656;23.292;2023-04-01T06:51:32;23.57;;;5.40;;
9675;SDS011;4876;42.656;23.292;2023-04-01T06:54:09;10.83;;;4.27;;
9675;SDS011;4876;42.656;23.292;2023-04-01T06:56:40;8.87;;;4.10;;
9675;SDS011;4876;42.656;23.292;2023-04-01T06:59:12;15.20;;;3.87;;
9675;SDS011;4876;42.656;23.292;2023-04-01T07:01:42;13.83;;;4.80;;
9675;SDS011;4876;42.656;23.292;2023-04-01T07:04:13;12.07;;;4.63;;
9675;SDS011;4876;42.656;23.292;2023-04-01T07:06:47;14.27;;;4.73;;
9675;SDS011;4876;42.656;23.292;2023-04-01T07:09:18;15.40;;;5.70;;
9675;SDS011;4876;42.656;23.292;2023-04-01T07:11:48;11.77;;;4.97;;
9675;SDS011;4876;42.656;23.292;2023-04-01T07:14:19;8.27;;;5.10;;
9675;SDS011;4876;42.656;23.292;2023-04-01T07:16:51;7.07;;;4.23;;
9675;SDS011;4876;42.656;23.292;2023-04-01T07:19:24;8.53;;;5.53;;
9675;SDS011;4876;42.656;23.292;2023-04-01T07:21:58;26.37;;;10.20;;
9675;SDS011;4876;42.656;23.292;2023-04-01T07:24:32;14.40;;;7.03;;
9675;SDS011;4876;42.656;23.292;2023-04-01T07:27:00;17.80;;;5.73;;
9675;SDS011;4876;42.656;23.292;2023-04-01T07:29:27;14.57;;;5.27;;
9675;SDS011;4876;42.656;23.292;2023-04-01T07:31:57;11.70;;;4.93;;
9675;SDS011;4876;42.656;23.292;2023-04-01T07:34:37;11.37;;;6.00;;
9675;SDS011;4876;42.656;23.292;2023-04-01T07:37:20;12.57;;;5.73;;
9675;SDS011;4876;42.656;23.292;2023-04-01T07:39:54;10.00;;;5.47;;
9675;SDS011;4876;42.656;23.292;2023-04-01T07:42:30;9.27;;;5.33;;
9675;SDS011;4876;42.656;23.292;2023-04-01T07:45:08;19.10;;;6.67;;
9675;SDS011;4876;42.656;23.292;2023-04-01T07:47:47;15.63;;;6.10;;
9675;SDS011;4876;42.656;23.292;2023-04-01T07:50:25;11.37;;;5.07;;
9675;SDS011;4876;42.656;23.292;2023-04-01T07:52:58;12.63;;;5.33;;
9675;SDS011;4876;42.656;23.292;2023-04-01T07:55:36;16.17;;;5.77;;
9675;SDS011;4876;42.656;23.292;2023-04-01T07:58:10;11.60;;;5.90;;
9675;SDS011;4876;42.656;23.292;2023-04-01T08:00:45;14.30;;;5.27;;
9675;SDS011;4876;42.656;23.292;2023-04-01T08:03:25;13.20;;;6.10;;
9675;SDS011;4876;42.656;23.292;2023-04-01T08:06:01;11.40;;;5.60;;
9675;SDS011;4876;42.656;23.292;2023-04-01T08:08:41;18.87;;;5.43;;
9675;SDS011;4876;42.656;23.292;2023-04-01T08:11:21;15.97;;;5.23;;
9675;SDS011;4876;42.656;23.292;2023-04-01T08:14:00;16.80;;;5.03;;
9675;SDS011;4876;42.656;23.292;2023-04-01T08:16:37;9.57;;;5.03;;
9675;SDS011;4876;42.656;23.292;2023-04-01T08:19:15;14.63;;;5.93;;
9675;SDS011;4876;42.656;23.292;2023-04-01T08:21:51;14.63;;;5.57;;
9675;SDS011;4876;42.656;23.292;2023-04-01T08:24:24;15.10;;;5.53;;
9675;SDS011;4876;42.656;23.292;2023-04-01T08:26:56;18.30;;;5.60;;
9675;SDS011;4876;42.656;23.292;2023-04-01T08:29:26;11.87;;;5.30;;
9675;SDS011;4876;42.656;23.292;2023-04-01T08:32:02;10.60;;;5.47;;
9675;SDS011;4876;42.656;23.292;2023-04-01T08:34:34;15.87;;;5.17;;
9675;SDS011;4876;42.656;23.292;2023-04-01T08:37:04;15.67;;;4.93;;
9675;SDS011;4876;42.656;23.292;2023-04-01T08:39:35;17.10;;;5.90;;
9675;SDS011;4876;42.656;23.292;2023-04-01T08:42:15;10.27;;;4.53;;
9675;SDS011;4876;42.656;23.292;2023-04-01T08:45:06;13.50;;;4.93;;
9675;SDS011;4876;42.656;23.292;2023-04-01T08:54:15;15.77;;;5.07;;
9675;SDS011;4876;42.656;23.292;2023-04-01T08:57:08;12.27;;;4.23;;
9675;SDS011;4876;42.656;23.292;2023-04-01T08:59:47;11.50;;;4.67;;
9675;SDS011;4876;42.656;23.292;2023-04-01T09:08:14;11.13;;;4.50;;
9675;SDS011;4876;42.656;23.292;2023-04-01T09:10:59;15.47;;;4.97;;
9675;SDS011;4876;42.656;23.292;2023-04-01T09:16:58;11.10;;;4.23;;
9675;SDS011;4876;42.656;23.292;2023-04-01T09:19:43;12.20;;;4.63;;
9675;SDS011;4876;42.656;23.292;2023-04-01T09:22:25;13.10;;;3.83;;
9675;SDS011;4876;42.656;23.292;2023-04-01T09:25:22;15.73;;;4.90;;
9675;SDS011;4876;42.656;23.292;2023-04-01T09:28:07;15.37;;;3.77;;
9675;SDS011;4876;42.656;23.292;2023-04-01T09:30:57;14.00;;;3.57;;
9675;SDS011;4876;42.656;23.292;2023-04-01T09:33:52;15.53;;;3.30;;
9675;SDS011;4876;42.656;23.292;2023-04-01T09:36:45;10.77;;;3.10;;
9675;SDS011;4876;42.656;23.292;2023-04-01T09:39:17;12.37;;;3.30;;
9675;SDS011;4876;42.656;23.292;2023-04-01T09:42:06;13.13;;;3.07;;
9675;SDS011;4876;42.656;23.292;2023-04-01T09:44:53;5.53;;;2.83;;
9675;SDS011;4876;42.656;23.292;2023-04-01T09:47:31;11.73;;;3.73;;
9675;SDS011;4876;42.656;23.292;2023-04-01T09:53:07;13.23;;;3.00;;
9675;SDS011;4876;42.656;23.292;2023-04-01T09:59:24;7.57;;;2.77;;
9675;SDS011;4876;42.656;23.292;2023-04-01T10:21:02;3.80;;;2.43;;
9675;SDS011;4876;42.656;23.292;2023-04-01T10:23:46;6.67;;;2.67;;
9675;SDS011;4876;42.656;23.292;2023-04-01T10:39:34;10.17;;;3.00;;
9675;SDS011;4876;42.656;23.292;2023-04-01T10:42:17;9.83;;;3.20;;
9675;SDS011;4876;42.656;23.292;2023-04-01T10:45:14;5.57;;;2.20;;
9675;SDS011;4876;42.656;23.292;2023-04-01T10:48:13;9.37;;;3.57;;
9675;SDS011;4876;42.656;23.292;2023-04-01T10:56:51;6.60;;;2.57;;
9675;SDS011;4876;42.656;23.292;2023-04-01T11:12:03;6.67;;;2.53;;
9675;SDS011;4876;42.656;23.292;2023-04-01T11:17:59;13.33;;;3.00;;
9675;SDS011;4876;42.656;23.292;2023-04-01T11:23:54;7.27;;;2.57;;
9675;SDS011;4876;42.656;23.292;2023-04-01T11:26:32;10.60;;;3.07;;
9675;SDS011;4876;42.656;23.292;2023-04-01T11:32:14;3.37;;;2.10;;
9675;SDS011;4876;42.656;23.292;2023-04-01T11:35:02;9.10;;;2.77;;
9675;SDS011;4876;42.656;23.292;2023-04-01T11:37:50;9.60;;;2.53;;
9675;SDS011;4876;42.656;23.292;2023-04-01T11:40:26;7.23;;;2.50;;
9675;SDS011;4876;42.656;23.292;2023-04-01T11:43:01;6.70;;;2.57;;
9675;SDS011;4876;42.656;23.292;2023-04-01T11:45:39;6.70;;;2.80;;
9675;SDS011;4876;42.656;23.292;2023-04-01T11:48:18;7.90;;;2.80;;
9675;SDS011;4876;42.656;23.292;2023-04-01T11:50:55;8.03;;;3.37;;
9675;SDS011;4876;42.656;23.292;2023-04-01T11:53:35;8.57;;;3.27;;
9675;SDS011;4876;42.656;23.292;2023-04-01T11:56:13;6.17;;;2.80;;
9675;SDS011;4876;42.656;23.292;2023-04-01T12:01:55;7.53;;;3.47;;
9675;SDS011;4876;42.656;23.292;2023-04-01T12:07:43;10.50;;;4.33;;
9675;SDS011;4876;42.656;23.292;2023-04-01T12:10:20;13.67;;;4.03;;
9675;SDS011;4876;42.656;23.292;2023-04-01T12:12:53;10.67;;;4.20;;
9675;SDS011;4876;42.656;23.292;2023-04-01T12:15:28;11.60;;;3.90;;
9675;SDS011;4876;42.656;23.292;2023-04-01T12:18:03;12.50;;;3.80;;
9675;SDS011;4876;42.656;23.292;2023-04-01T12:20:47;10.70;;;3.80;;
9675;SDS011;4876;42.656;23.292;2023-04-01T12:23:33;11.20;;;4.43;;
9675;SDS011;4876;42.656;23.292;2023-04-01T12:26:19;8.73;;;4.00;;
9675;SDS011;4876;42.656;23.292;2023-04-01T12:29:02;12.03;;;3.77;;
9675;SDS011;4876;42.656;23.292;2023-04-01T12:31:42;9.87;;;3.53;;
9675;SDS011;4876;42.656;23.292;2023-04-01T12:34:30;10.83;;;3.97;;
9675;SDS011;4876;42.656;23.292;2023-04-01T12:37:10;7.83;;;3.00;;
9675;SDS011;4876;42.656;23.292;2023-04-01T12:40:02;5.83;;;3.00;;
9675;SDS011;4876;42.656;23.292;2023-04-01T12:42:46;5.27;;;3.07;;
9675;SDS011;4876;42.656;23.292;2023-04-01T12:45:27;9.93;;;3.80;;
9675;SDS011;4876;42.656;23.292;2023-04-01T12:54:02;8.73;;;4.63;;
9675;SDS011;4876;42.656;23.292;2023-04-01T12:56:44;6.80;;;3.20;;
9675;SDS011;4876;42.656;23.292;2023-04-01T12:59:27;5.87;;;3.20;;
9675;SDS011;4876;42.656;23.292;2023-04-01T13:02:13;6.47;;;2.47;;
9675;SDS011;4876;42.656;23.292;2023-04-01T13:04:58;8.00;;;2.80;;
9675;SDS011;4876;42.656;23.292;2023-04-01T13:07:52;7.33;;;3.17;;
9675;SDS011;4876;42.656;23.292;2023-04-01T13:10:30;3.73;;;2.20;;
9675;SDS011;4876;42.656;23.292;2023-04-01T13:16:24;3.73;;;1.90;;
9675;SDS011;4876;42.656;23.292;2023-04-01T13:18:58;4.93;;;1.83;;
9675;SDS011;4876;42.656;23.292;2023-04-01T13:21:38;4.83;;;1.87;;
9675;SDS011;4876;42.656;23.292;2023-04-01T13:24:21;8.47;;;2.30;;
9675;SDS011;4876;42.656;23.292;2023-04-01T13:27:02;4.30;;;2.20;;
9675;SDS011;4876;42.656;23.292;2023-04-01T13:29:36;3.07;;;2.23;;
9675;SDS011;4876;42.656;23.292;2023-04-01T13:32:13;4.93;;;2.20;;
9675;SDS011;4876;42.656;23.292;2023-04-01T13:38:00;6.77;;;3.83;;
9675;SDS011;4876;42.656;23.292;2023-04-01T13:40:42;6.63;;;2.73;;
9675;SDS011;4876;42.656;23.292;2023-04-01T13:43:22;6.03;;;2.57;;
9675;SDS011;4876;42.656;23.292;2023-04-01T13:46:04;3.23;;;1.70;;
9675;SDS011;4876;42.656;23.292;2023-04-01T13:54:50;2.90;;;1.40;;
9675;SDS011;4876;42.656;23.292;2023-04-01T13:57:43;1.87;;;1.20;;
9675;SDS011;4876;42.656;23.292;2023-04-01T14:00:27;3.97;;;1.47;;
9675;SDS011;4876;42.656;23.292;2023-04-01T14:06:13;4.20;;;1.23;;
9675;SDS011;4876;42.656;23.292;2023-04-01T14:08:55;4.83;;;1.47;;
9675;SDS011;4876;42.656;23.292;2023-04-01T14:11:36;3.17;;;1.57;;
9675;SDS011;4876;42.656;23.292;2023-04-01T14:14:14;4.40;;;1.70;;
9675;SDS011;4876;42.656;23.292;2023-04-01T14:16:58;2.53;;;1.40;;
9675;SDS011;4876;42.656;23.292;2023-04-01T14:19:39;2.73;;;1.50;;
9675;SDS011;4876;42.656;23.292;2023-04-01T14:22:22;5.73;;;1.97;;
9675;SDS011;4876;42.656;23.292;2023-04-01T14:25:12;2.20;;;1.30;;
9675;SDS011;4876;42.656;23.292;2023-04-01T14:27:54;2.87;;;1.30;;
9675;SDS011;4876;42.656;23.292;2023-04-01T14:30:41;3.83;;;1.57;;
9675;SDS011;4876;42.656;23.292;2023-04-01T14:33:31;4.83;;;1.73;;
9675;SDS011;4876;42.656;23.292;2023-04-01T14:36:17;1.97;;;1.27;;
9675;SDS011;4876;42.656;23.292;2023-04-01T14:39:09;2.50;;;1.40;;
9675;SDS011;4876;42.656;23.292;2023-04-01T14:41:47;5.50;;;1.83;;
9675;SDS011;4876;42.656;23.292;2023-04-01T14:44:33;1.60;;;1.10;;
9675;SDS011;4876;42.656;23.292;2023-04-01T14:47:43;3.07;;;1.10;;
9675;SDS011;4876;42.656;23.292;2023-04-01T14:50:15;1.83;;;1.30;;
9675;SDS011;4876;42.656;23.292;2023-04-01T14:52:47;1.90;;;1.30;;
9675;SDS011;4876;42.656;23.292;2023-04-01T14:55:27;1.87;;;1.40;;
9675;SDS011;4876;42.656;23.292;2023-04-01T14:57:59;3.00;;;1.40;;
9675;SDS011;4876;42.656;23.292;2023-04-01T15:00:48;3.90;;;1.10;;
9675;SDS011;4876;42.656;23.292;2023-04-01T15:03:24;7.97;;;1.53;;
9675;SDS011;4876;42.656;23.292;2023-04-01T15:06:00;4.23;;;1.10;;
9675;SDS011;4876;42.656;23.292;2023-04-01T15:09:02;2.03;;;1.13;;
9675;SDS011;4876;42.656;23.292;2023-04-01T15:11:43;2.27;;;1.20;;
9675;SDS011;4876;42.656;23.292;2023-04-01T15:17:24;3.80;;;1.40;;
9675;SDS011;4876;42.656;23.292;2023-04-01T15:20:10;5.87;;;1.50;;
9675;SDS011;4876;42.656;23.292;2023-04-01T15:23:00;3.93;;;1.50;;
9675;SDS011;4876;42.656;23.292;2023-04-01T15:25:49;2.90;;;1.50;;
9675;SDS011;4876;42.656;23.292;2023-04-01T15:28:27;3.83;;;1.40;;
9675;SDS011;4876;42.656;23.292;2023-04-01T15:31:02;5.03;;;1.50;;
9675;SDS011;4876;42.656;23.292;2023-04-01T15:33:38;1.60;;;1.43;;
9675;SDS011;4876;42.656;23.292;2023-04-01T15:36:17;2.60;;;1.60;;
9675;SDS011;4876;42.656;23.292;2023-04-01T15:38:58;3.57;;;1.70;;
9675;SDS011;4876;42.656;23.292;2023-04-01T15:41:35;2.93;;;1.70;;
9675;SDS011;4876;42.656;23.292;2023-04-01T15:47:10;4.03;;;1.90;;
9675;SDS011;4876;42.656;23.292;2023-04-01T15:50:00;2.87;;;1.67;;
9675;SDS011;4876;42.656;23.292;2023-04-01T15:52:49;2.43;;;1.00;;
9675;SDS011;4876;42.656;23.292;2023-04-01T15:55:31;1.83;;;1.00;;
9675;SDS011;4876;42.656;23.292;2023-04-01T16:01:14;3.83;;;1.13;;
9675;SDS011;4876;42.656;23.292;2023-04-01T16:03:49;2.85;;;1.77;;
9675;SDS011;4876;42.656;23.292;2023-04-01T16:06:32;0.00;;;0.00;;
9675;SDS011;4876;42.656;23.292;2023-04-01T16:09:16;0.00;;;0.00;;
9675;SDS011;4876;42.656;23.292;2023-04-01T16:11:57;0.00;;;0.00;;
9675;SDS011;4876;42.656;23.292;2023-04-01T16:14:36;0.00;;;0.00;;
9675;SDS011;4876;42.656;23.292;2023-04-01T16:20:12;0.00;;;0.00;;
9675;SDS011;4876;42.656;23.292;2023-04-01T16:22:45;0.00;;;0.00;;
9675;SDS011;4876;42.656;23.292;2023-04-01T16:25:20;0.00;;;0.00;;
9675;SDS011;4876;42.656;23.292;2023-04-01T16:28:02;0.10;;;0.10;;
9675;SDS011;4876;42.656;23.292;2023-04-01T16:30:40;0.00;;;0.00;;
9675;SDS011;4876;42.656;23.292;2023-04-01T16:33:14;0.00;;;0.00;;
9675;SDS011;4876;42.656;23.292;2023-04-01T16:35:49;0.00;;;0.00;;
9675;SDS011;4876;42.656;23.292;2023-04-01T16:38:23;0.10;;;0.10;;
9675;SDS011;4876;42.656;23.292;2023-04-01T16:40:58;0.00;;;0.00;;
9675;SDS011;4876;42.656;23.292;2023-04-01T16:43:38;0.00;;;0.00;;
9675;SDS011;4876;42.656;23.292;2023-04-01T16:46:17;0.00;;;0.00;;
9675;SDS011;4876;42.656;23.292;2023-04-01T16:49:02;0.00;;;0.00;;
9675;SDS011;4876;42.656;23.292;2023-04-01T16:51:44;0.00;;;0.00;;
9675;SDS011;4876;42.656;23.292;2023-04-01T16:54:14;0.00;;;0.00;;
9675;SDS011;4876;42.656;23.292;2023-04-01T16:56:54;0.00;;;0.00;;
9675;SDS011;4876;42.656;23.292;2023-04-01T16:59:24;0.00;;;0.00;;
9675;SDS011;4876;42.656;23.292;2023-04-01T17:01:56;0.00;;;0.00;;
9675;SDS011;4876;42.656;23.292;2023-04-01T17:04:31;0.00;;;0.00;;
9675;SDS011;4876;42.656;23.292;2023-04-01T17:07:05;0.00;;;0.00;;
9675;SDS011;4876;42.656;23.292;2023-04-01T17:09:45;0.10;;;0.10;;
9675;SDS011;4876;42.656;23.292;2023-04-01T17:12:24;0.00;;;0.00;;
9675;SDS011;4876;42.656;23.292;2023-04-01T17:14:59;0.00;;;0.00;;
9675;SDS011;4876;42.656;23.292;2023-04-01T17:17:38;0.00;;;0.00;;
9675;SDS011;4876;42.656;23.292;2023-04-01T17:23:01;0.00;;;0.00;;
9675;SDS011;4876;42.656;23.292;2023-04-01T17:25:45;0.00;;;0.00;;
9675;SDS011;4876;42.656;23.292;2023-04-01T17:28:24;0.00;;;0.00;;
9675;SDS011;4876;42.656;23.292;2023-04-01T17:31:04;0.00;;;0.00;;
9675;SDS011;4876;42.656;23.292;2023-04-01T17:33:46;0.00;;;0.00;;
9675;SDS011;4876;42.656;23.292;2023-04-01T17:39:26;2.50;;;2.07;;
9675;SDS011;4876;42.656;23.292;2023-04-01T17:42:06;2.40;;;2.10;;
9675;SDS011;4876;42.656;23.292;2023-04-01T17:44:40;2.37;;;1.90;;
9675;SDS011;4876;42.656;23.292;2023-04-01T17:50:21;2.87;;;2.23;;
9675;SDS011;4876;42.656;23.292;2023-04-01T17:53:02;2.60;;;1.93;;
9675;SDS011;4876;42.656;23.292;2023-04-01T17:55:43;1.93;;;1.57;;
9675;SDS011;4876;42.656;23.292;2023-04-01T17:58:17;1.67;;;1.57;;
9675;SDS011;4876;42.656;23.292;2023-04-01T18:04:08;1.60;;;1.50;;
9675;SDS011;4876;42.656;23.292;2023-04-01T18:06:46;2.23;;;1.50;;
9675;SDS011;4876;42.656;23.292;2023-04-01T18:09:24;2.13;;;1.87;;
9675;SDS011;4876;42.656;23.292;2023-04-01T18:11:59;4.23;;;1.90;;